createdAt,value
2018-03-14T00:01:49.198Z,12.30
2018-03-14T00:04:17.814Z,13.50
2018-03-14T00:06:46.379Z,12.40
2018-03-14T00:09:14.940Z,12.30
2018-03-14T00:11:43.487Z,13.03
2018-03-14T00:14:12.068Z,11.63
2018-03-14T00:16:40.613Z,11.90
2018-03-14T00:19:09.155Z,12.90
2018-03-14T00:21:38.532Z,12.87
2018-03-14T00:24:08.260Z,7.77
2018-03-14T00:26:36.795Z,10.70
2018-03-14T00:29:05.352Z,10.67
2018-03-14T00:31:33.923Z,11.07
2018-03-14T00:34:03.236Z,11.87
2018-03-14T00:36:31.872Z,12.93
2018-03-14T00:39:00.430Z,13.63
2018-03-14T00:41:28.968Z,10.40
2018-03-14T00:43:58.335Z,12.93
2018-03-14T00:46:26.980Z,11.73
2018-03-14T00:48:55.519Z,13.00
2018-03-14T00:51:24.088Z,11.67
2018-03-14T00:53:52.707Z,15.53
2018-03-14T00:56:21.260Z,13.30
2018-03-14T00:58:50.660Z,12.33
2018-03-14T01:01:22.649Z,11.90
2018-03-14T01:03:52.254Z,12.40
2018-03-14T01:06:21.574Z,13.13
2018-03-14T01:08:54.020Z,13.63
2018-03-14T01:11:26.599Z,13.53
2018-03-14T01:13:59.419Z,14.63
2018-03-14T01:16:32.256Z,17.20
2018-03-14T01:19:00.838Z,13.73
2018-03-14T01:21:29.483Z,12.63
2018-03-14T01:24:03.656Z,14.50
2018-03-14T01:26:36.224Z,14.33
2018-03-14T01:29:05.926Z,12.90
2018-03-14T01:31:37.131Z,14.70
2018-03-14T01:34:07.600Z,14.33
2018-03-14T01:36:37.317Z,13.53
2018-03-14T01:39:09.769Z,14.80
2018-03-14T01:41:42.179Z,13.67
2018-03-14T01:44:14.431Z,15.47
2018-03-14T01:46:44.007Z,15.47
2018-03-14T01:49:20.002Z,14.90
2018-03-14T01:51:49.574Z,15.57
2018-03-14T01:54:19.163Z,15.30
2018-03-14T01:56:48.756Z,15.43
2018-03-14T01:59:18.323Z,14.37
2018-03-14T02:01:47.912Z,15.30
2018-03-14T02:04:17.502Z,14.90
2018-03-14T02:06:47.202Z,14.97
2018-03-14T02:09:15.788Z,13.83
2018-03-14T02:11:44.318Z,15.40
2018-03-14T02:14:12.910Z,15.10
2018-03-14T02:16:41.514Z,12.00
2018-03-14T02:19:10.055Z,14.83
2018-03-14T02:21:39.367Z,14.80
2018-03-14T02:24:08.868Z,13.17
2018-03-14T02:26:38.164Z,15.83
2018-03-14T02:29:07.473Z,15.20
2018-03-14T02:31:36.059Z,13.07
2018-03-14T02:34:05.366Z,14.83
2018-03-14T02:50:07.130Z,12.60
2018-03-14T02:52:35.472Z,12.50
2018-03-14T02:55:03.476Z,14.10
2018-03-14T02:57:31.836Z,13.60
2018-03-14T03:00:05.859Z,13.73
2018-03-14T03:02:36.578Z,13.93
2018-03-14T03:05:12.278Z,14.77
2018-03-14T03:07:43.773Z,15.40
2018-03-14T03:10:13.151Z,12.47
2018-03-14T03:12:43.524Z,14.50
2018-03-14T03:15:13.901Z,14.30
2018-03-14T03:17:43.144Z,13.60
2018-03-14T03:20:11.566Z,13.83
2018-03-14T03:22:39.901Z,14.20
2018-03-14T03:25:08.633Z,13.90
2018-03-14T03:27:37.770Z,12.63
2018-03-14T03:30:06.113Z,16.17
2018-03-14T03:32:35.251Z,15.83
2018-03-14T03:35:03.748Z,15.07
2018-03-14T03:37:32.105Z,15.13
2018-03-14T03:40:00.485Z,14.17
2018-03-14T03:42:28.855Z,13.50
2018-03-14T03:44:57.214Z,13.33
2018-03-14T03:47:25.596Z,13.90
2018-03-14T03:49:54.006Z,12.90
2018-03-14T03:52:22.354Z,13.40
2018-03-14T03:54:50.788Z,16.90
2018-03-14T03:57:19.155Z,16.13
2018-03-14T03:59:47.559Z,15.23
2018-03-14T04:02:16.922Z,14.73
2018-03-14T04:04:45.268Z,14.50
2018-03-14T04:07:13.627Z,16.53
2018-03-14T04:09:42.773Z,15.97
2018-03-14T04:12:11.122Z,15.87
2018-03-14T04:14:39.497Z,14.70
2018-03-14T04:17:09.096Z,13.80
2018-03-14T04:19:37.453Z,12.83
2018-03-14T04:22:05.788Z,13.73
2018-03-14T04:24:34.160Z,13.13
2018-03-14T04:27:02.520Z,15.47
2018-03-14T04:29:30.888Z,14.00
2018-03-14T04:31:59.261Z,14.53
2018-03-14T04:34:28.421Z,13.30
2018-03-14T04:36:56.763Z,13.60
2018-03-14T04:39:25.452Z,14.80
2018-03-14T04:41:53.809Z,12.63
2018-03-14T04:44:22.160Z,15.47
2018-03-14T04:46:51.296Z,13.70
2018-03-14T04:49:19.647Z,13.63
2018-03-14T04:51:48.748Z,15.37
2018-03-14T04:54:17.127Z,13.37
2018-03-14T04:56:45.509Z,15.50
2018-03-14T04:59:13.862Z,13.23
2018-03-14T05:01:43.002Z,14.67
2018-03-14T05:04:11.441Z,14.17
2018-03-14T05:06:40.545Z,14.27
2018-03-14T05:09:09.217Z,14.30
2018-03-14T05:11:38.361Z,14.50
2018-03-14T05:14:06.716Z,13.20
2018-03-14T05:16:35.076Z,14.83
2018-03-14T05:19:04.189Z,15.50
2018-03-14T05:21:32.600Z,12.33
2018-03-14T05:24:00.962Z,14.77
2018-03-14T05:26:29.636Z,12.83
2018-03-14T05:28:58.004Z,15.23
2018-03-14T05:31:26.356Z,12.13
2018-03-14T05:33:55.468Z,14.63
2018-03-14T05:36:23.842Z,14.40
2018-03-14T05:38:52.947Z,14.47
2018-03-14T05:41:21.323Z,13.27
2018-03-14T05:43:49.664Z,13.17
2018-03-14T05:46:18.009Z,14.23
2018-03-14T05:48:46.388Z,13.00
2018-03-14T05:51:14.741Z,12.50
2018-03-14T05:53:43.107Z,13.40
2018-03-14T05:56:11.463Z,14.37
2018-03-14T05:58:39.808Z,13.87
2018-03-14T06:01:08.181Z,13.80
2018-03-14T06:03:36.612Z,14.07
2018-03-14T06:06:05.720Z,12.67
2018-03-14T06:08:34.096Z,13.77
2018-03-14T06:11:02.432Z,11.90
2018-03-14T06:13:30.807Z,13.37
2018-03-14T06:15:59.220Z,12.73
2018-03-14T06:18:28.327Z,12.77
2018-03-14T06:20:56.694Z,13.70
2018-03-14T06:23:26.011Z,12.97
2018-03-14T06:25:54.376Z,13.43
2018-03-14T06:28:23.495Z,16.93
2018-03-14T06:30:51.663Z,21.43
2018-03-14T06:33:20.020Z,19.30
2018-03-14T06:35:48.484Z,17.30
2018-03-14T06:38:17.644Z,14.30
2018-03-14T06:40:45.999Z,14.73
2018-03-14T06:43:14.339Z,13.63
2018-03-14T06:45:43.464Z,12.80
2018-03-14T06:48:11.825Z,13.73
2018-03-14T06:50:40.953Z,12.90
2018-03-14T06:53:09.314Z,14.07
2018-03-14T06:55:37.741Z,12.07
2018-03-14T06:58:06.287Z,14.63
2018-03-14T07:00:46.009Z,13.77
2018-03-14T07:03:25.676Z,14.10
2018-03-14T07:06:14.405Z,14.70
2018-03-14T07:08:42.794Z,13.33
2018-03-14T07:11:11.153Z,14.97
2018-03-14T07:13:40.269Z,14.80
2018-03-14T07:16:08.305Z,12.70
2018-03-14T07:18:36.660Z,13.40
2018-03-14T07:21:04.682Z,14.50
2018-03-14T07:23:33.076Z,13.20
2018-03-14T07:26:01.423Z,13.47
2018-03-14T07:28:30.656Z,13.60
2018-03-14T07:30:59.033Z,14.43
2018-03-14T07:33:27.400Z,12.80
2018-03-14T07:35:55.743Z,14.40
2018-03-14T07:38:24.889Z,14.40
2018-03-14T07:40:53.449Z,14.13
2018-03-14T07:43:21.789Z,14.70
2018-03-14T07:45:50.158Z,13.83
2018-03-14T07:48:18.516Z,12.87
2018-03-14T07:50:46.852Z,13.20
2018-03-14T07:53:15.253Z,13.53
2018-03-14T07:55:43.609Z,12.47
2018-03-14T07:58:11.955Z,13.57
2018-03-14T08:00:40.330Z,13.50
2018-03-14T08:03:08.689Z,14.27
2018-03-14T08:05:37.032Z,11.13
2018-03-14T08:08:05.405Z,13.80
2018-03-14T08:10:33.811Z,11.43
2018-03-14T08:13:02.260Z,13.27
2018-03-14T08:15:30.632Z,13.47
2018-03-14T08:17:59.741Z,10.77
2018-03-14T08:20:28.409Z,12.03
2018-03-14T08:22:57.540Z,12.13
2018-03-14T08:25:25.892Z,12.60
2018-03-14T08:27:55.152Z,13.47
2018-03-14T08:30:24.565Z,13.07
2018-03-14T08:32:54.261Z,12.23
2018-03-14T08:35:23.437Z,11.60
2018-03-14T08:37:51.861Z,11.87
2018-03-14T08:40:20.964Z,9.83
2018-03-14T08:42:49.334Z,12.60
2018-03-14T08:45:18.434Z,13.43
2018-03-14T08:47:47.579Z,11.00
2018-03-14T08:50:15.951Z,11.77
2018-03-14T08:52:44.505Z,13.37
2018-03-14T08:55:12.864Z,12.30
2018-03-14T08:57:41.975Z,10.23
2018-03-14T09:00:10.708Z,11.87
2018-03-14T09:02:39.060Z,12.10
2018-03-14T09:05:07.403Z,11.40
2018-03-14T09:07:36.598Z,12.53
2018-03-14T09:10:05.704Z,10.60
2018-03-14T09:12:33.971Z,11.13
2018-03-14T09:15:03.077Z,7.80
2018-03-14T09:17:31.437Z,5.70
2018-03-14T09:20:00.544Z,6.93
2018-03-14T09:22:28.562Z,9.70
2018-03-14T09:24:57.352Z,7.70
2018-03-14T09:27:25.727Z,8.77
2018-03-14T09:29:54.067Z,8.40
2018-03-14T09:32:22.428Z,10.50
2018-03-14T09:34:50.776Z,10.10
2018-03-14T09:37:19.164Z,10.53
2018-03-14T09:39:47.714Z,9.37
2018-03-14T09:42:17.015Z,9.03
2018-03-14T09:44:45.364Z,8.50
2018-03-14T09:47:13.737Z,10.77
2018-03-14T09:49:42.119Z,9.00
2018-03-14T09:52:10.474Z,8.60
2018-03-14T09:54:38.814Z,8.40
2018-03-14T09:57:07.200Z,7.40
2018-03-14T09:59:35.725Z,7.30
2018-03-14T10:02:03.749Z,6.07
2018-03-14T10:04:32.096Z,6.20
2018-03-14T10:07:00.455Z,6.60
2018-03-14T10:09:28.810Z,4.93
2018-03-14T10:11:58.115Z,5.60
2018-03-14T10:14:27.339Z,6.50
2018-03-14T10:16:55.687Z,6.87
2018-03-14T10:19:24.800Z,8.47
2018-03-14T10:21:53.193Z,6.83
2018-03-14T10:24:21.733Z,8.33
2018-03-14T10:26:50.095Z,7.20
2018-03-14T10:29:18.437Z,4.40
2018-03-14T10:31:46.777Z,6.50
2018-03-14T10:34:15.902Z,6.20
2018-03-14T10:36:44.303Z,6.33
2018-03-14T10:39:12.796Z,5.10
2018-03-14T10:41:41.138Z,6.23
2018-03-14T10:44:09.472Z,7.57
2018-03-14T10:46:37.832Z,6.27
2018-03-14T10:49:06.176Z,6.80
2018-03-14T10:51:34.535Z,5.07
2018-03-14T10:54:02.912Z,5.40
2018-03-14T10:56:31.271Z,7.00
2018-03-14T10:59:00.384Z,7.03
2018-03-14T11:14:49.333Z,6.97
2018-03-14T11:17:17.689Z,6.40
2018-03-14T11:19:46.809Z,7.13
2018-03-14T11:22:15.176Z,7.50
2018-03-14T11:24:43.561Z,7.37
2018-03-14T11:27:11.905Z,6.80
2018-03-14T11:29:40.316Z,6.70
2018-03-14T11:32:08.656Z,7.13
2018-03-14T11:34:37.018Z,7.60
2018-03-14T11:37:05.376Z,6.70
2018-03-14T11:39:34.486Z,7.13
2018-03-14T11:42:02.899Z,7.00
2018-03-14T11:44:32.050Z,7.23
2018-03-14T11:47:00.404Z,6.60
2018-03-14T11:49:28.750Z,6.10
2018-03-14T11:51:57.861Z,5.73
2018-03-14T11:54:26.988Z,6.90
2018-03-14T11:56:55.336Z,6.13
2018-03-14T11:59:23.667Z,6.03
2018-03-14T12:01:52.136Z,6.97
2018-03-14T12:04:20.480Z,5.60
2018-03-14T12:06:48.846Z,5.63
2018-03-14T12:09:17.953Z,5.83
2018-03-14T12:11:46.324Z,5.53
2018-03-14T12:14:14.721Z,4.37
2018-03-14T12:16:43.189Z,7.80
2018-03-14T12:19:11.550Z,5.20
2018-03-14T12:21:40.653Z,5.40
2018-03-14T12:24:09.441Z,4.67
2018-03-14T12:26:37.810Z,5.50
2018-03-14T12:29:07.031Z,5.63
2018-03-14T12:31:35.667Z,5.20
2018-03-14T12:34:04.011Z,4.80
2018-03-14T12:36:32.351Z,4.73
2018-03-14T12:39:00.699Z,4.17
2018-03-14T12:41:29.846Z,3.90
2018-03-14T12:43:58.202Z,3.70
2018-03-14T12:46:27.419Z,4.70
2018-03-14T12:48:55.860Z,5.53
2018-03-14T12:51:24.996Z,3.40
2018-03-14T12:53:54.524Z,3.87
2018-03-14T12:56:22.890Z,4.03
2018-03-14T12:58:51.223Z,3.63
2018-03-14T13:01:20.001Z,4.40
2018-03-14T13:03:49.143Z,3.50
2018-03-14T13:06:17.482Z,3.23
2018-03-14T13:08:46.631Z,3.53
2018-03-14T13:11:15.790Z,4.20
2018-03-14T13:13:44.200Z,4.53
2018-03-14T13:18:47.795Z,4.23
2018-03-14T13:21:16.794Z,4.10
2018-03-14T13:23:45.482Z,5.00
2018-03-14T13:26:15.904Z,5.03
2018-03-14T13:28:44.287Z,4.60
2018-03-14T13:31:12.729Z,5.30
2018-03-14T13:33:41.191Z,5.47
2018-03-14T13:36:09.534Z,5.20
2018-03-14T13:38:38.082Z,5.40
2018-03-14T13:41:07.208Z,5.50
2018-03-14T13:43:36.568Z,5.77
2018-03-14T13:46:05.719Z,5.73
2018-03-14T13:48:34.072Z,6.30
2018-03-14T13:51:02.432Z,8.30
2018-03-14T13:53:31.191Z,7.90
2018-03-14T13:55:59.537Z,7.60
2018-03-14T13:58:27.901Z,7.17
2018-03-14T14:00:56.295Z,8.77
2018-03-14T14:03:24.674Z,8.23
2018-03-14T14:05:53.039Z,7.23
2018-03-14T14:08:21.375Z,5.67
2018-03-14T14:10:50.511Z,7.67
2018-03-14T14:13:18.860Z,6.53
2018-03-14T14:15:47.226Z,6.83
2018-03-14T14:18:16.436Z,5.17
2018-03-14T14:20:44.825Z,4.90
2018-03-14T14:23:13.486Z,4.57
2018-03-14T14:25:42.643Z,3.73
2018-03-14T14:28:10.987Z,2.20
2018-03-14T14:30:39.158Z,3.50
2018-03-14T14:33:07.492Z,2.83
2018-03-14T14:35:35.995Z,3.57
2018-03-14T14:38:04.148Z,2.67
2018-03-14T14:40:33.277Z,3.30
2018-03-14T14:43:01.620Z,2.40
2018-03-14T14:45:29.968Z,3.00
2018-03-14T14:47:58.370Z,2.70
2018-03-14T14:50:27.003Z,2.50
2018-03-14T14:52:55.340Z,2.10
2018-03-14T14:55:24.493Z,4.40
2018-03-14T14:57:53.112Z,4.43
2018-03-14T15:00:21.500Z,5.33
2018-03-14T15:02:50.606Z,5.20
2018-03-14T15:05:19.712Z,3.70
2018-03-14T15:07:48.118Z,4.53
2018-03-14T15:10:16.447Z,5.00
2018-03-14T15:12:45.583Z,4.63
2018-03-14T15:15:13.913Z,5.57
2018-03-14T15:17:43.072Z,4.17
2018-03-14T15:20:11.529Z,5.53
2018-03-14T15:22:41.138Z,6.00
2018-03-14T15:25:09.912Z,6.50
2018-03-14T15:27:39.014Z,7.97
2018-03-14T15:30:07.356Z,5.10
2018-03-14T15:32:35.723Z,5.50
2018-03-14T15:35:04.075Z,9.00
2018-03-14T15:37:32.509Z,8.60
2018-03-14T15:40:01.663Z,5.50
2018-03-14T15:42:30.039Z,7.57
2018-03-14T15:44:58.413Z,7.40
2018-03-14T15:47:26.765Z,8.00
2018-03-14T15:49:55.128Z,7.77
2018-03-14T15:52:23.472Z,8.10
2018-03-14T15:54:51.819Z,7.40
2018-03-14T15:57:20.180Z,7.37
2018-03-14T15:59:48.363Z,7.80
2018-03-14T16:02:16.727Z,4.80
2018-03-14T16:04:45.057Z,8.40
2018-03-14T16:07:13.400Z,7.97
2018-03-14T16:09:41.595Z,5.40
2018-03-14T16:12:09.954Z,7.67
2018-03-14T16:14:38.333Z,8.60
2018-03-14T16:17:06.352Z,7.60
2018-03-14T16:19:35.477Z,7.90
2018-03-14T16:22:03.853Z,8.60
2018-03-14T16:24:32.195Z,7.30
2018-03-14T16:27:01.340Z,7.00
2018-03-14T16:29:29.360Z,6.90
2018-03-14T16:31:58.471Z,7.20
2018-03-14T16:34:27.805Z,6.27
2018-03-14T16:36:56.149Z,7.00
2018-03-14T16:39:25.265Z,4.87
2018-03-14T16:41:53.618Z,6.23
2018-03-14T16:44:22.728Z,7.60
2018-03-14T16:46:51.091Z,6.43
2018-03-14T16:49:20.220Z,5.97
2018-03-14T16:51:48.600Z,7.37
2018-03-14T16:54:16.936Z,7.47
2018-03-14T16:56:46.041Z,7.07
2018-03-14T16:59:14.402Z,5.77
2018-03-14T17:01:48.255Z,6.20
2018-03-14T17:04:17.102Z,5.93
2018-03-14T17:06:47.993Z,7.00
2018-03-14T17:09:16.469Z,7.50
2018-03-14T17:11:44.933Z,6.50
2018-03-14T17:14:13.321Z,6.67
2018-03-14T17:16:41.711Z,6.80
2018-03-14T17:19:10.413Z,7.33
2018-03-14T17:21:38.783Z,7.20
2018-03-14T17:24:07.148Z,7.40
2018-03-14T17:26:36.616Z,6.23
2018-03-14T17:29:04.994Z,6.90
2018-03-14T17:31:35.071Z,6.27
2018-03-14T17:34:03.563Z,6.30
2018-03-14T17:36:31.989Z,6.80
2018-03-14T17:39:00.373Z,7.00
2018-03-14T17:41:28.717Z,6.93
2018-03-14T17:43:57.880Z,6.73
2018-03-14T17:46:26.225Z,6.10
2018-03-14T17:48:54.607Z,6.80
2018-03-14T17:51:24.348Z,5.97
2018-03-14T17:53:53.745Z,7.10
2018-03-14T17:56:23.108Z,6.57
2018-03-14T17:58:52.509Z,6.10
2018-03-14T18:01:22.315Z,6.20
2018-03-14T18:03:50.369Z,5.90
2018-03-14T18:06:19.504Z,5.77
2018-03-14T18:08:49.062Z,6.83
2018-03-14T18:11:18.226Z,6.80
2018-03-14T18:13:46.720Z,7.07
2018-03-14T18:16:15.401Z,6.40
2018-03-14T18:18:44.699Z,5.73
2018-03-14T18:21:13.292Z,6.03
2018-03-14T18:23:41.638Z,6.27
2018-03-14T18:26:09.975Z,5.37
2018-03-14T18:28:38.345Z,6.50
2018-03-14T18:31:08.164Z,6.47
2018-03-14T18:33:37.572Z,6.30
2018-03-14T18:36:06.944Z,5.57
2018-03-14T18:38:36.338Z,6.07
2018-03-14T18:41:05.781Z,5.47
2018-03-14T18:43:35.168Z,6.30
2018-03-14T18:46:05.179Z,7.70
2018-03-14T18:48:34.316Z,6.63
2018-03-14T18:51:03.716Z,7.33
2018-03-14T18:53:33.076Z,7.03
2018-03-14T18:56:02.443Z,6.90
2018-03-14T18:58:31.843Z,6.87
2018-03-14T19:01:01.223Z,6.23
2018-03-14T19:03:30.588Z,6.40
2018-03-14T19:05:59.982Z,7.20
2018-03-14T19:08:29.419Z,8.13
2018-03-14T19:10:58.772Z,5.07
2018-03-14T19:13:28.168Z,6.00
2018-03-14T19:15:57.547Z,7.43
2018-03-14T19:18:27.009Z,6.27
2018-03-14T19:20:56.704Z,6.97
2018-03-14T19:23:26.108Z,7.23
2018-03-14T19:25:55.493Z,6.17
2018-03-14T19:28:24.883Z,5.47
2018-03-14T19:30:54.283Z,5.90
2018-03-14T19:33:23.672Z,6.00
2018-03-14T19:35:53.086Z,6.13
2018-03-14T19:38:22.668Z,6.27
2018-03-14T19:40:52.065Z,6.90
2018-03-14T19:43:21.451Z,6.00
2018-03-14T19:45:50.818Z,6.23
2018-03-14T19:48:20.184Z,6.70
2018-03-14T19:50:49.598Z,6.93
2018-03-14T19:53:19.032Z,6.10
2018-03-14T19:55:48.430Z,5.77
2018-03-14T19:58:17.914Z,6.40
2018-03-14T20:00:47.302Z,6.47
2018-03-14T20:03:16.693Z,6.67
2018-03-14T20:05:46.059Z,7.10
2018-03-14T20:08:15.431Z,6.23
2018-03-14T20:10:44.802Z,6.20
2018-03-14T20:13:14.183Z,6.97
2018-03-14T20:15:43.386Z,6.30
2018-03-14T20:18:11.723Z,6.97
2018-03-14T20:20:40.093Z,5.80
2018-03-14T20:23:09.251Z,6.70
2018-03-14T20:25:37.592Z,6.03
2018-03-14T20:28:06.003Z,5.50
2018-03-14T20:30:34.390Z,6.30
2018-03-14T20:33:02.764Z,5.87
2018-03-14T20:35:31.154Z,5.30
2018-03-14T20:37:59.532Z,4.87
2018-03-14T20:40:27.904Z,5.27
2018-03-14T20:42:56.263Z,5.53
2018-03-14T20:45:25.761Z,5.50
2018-03-14T20:47:54.160Z,4.00
2018-03-14T20:50:22.528Z,6.07
2018-03-14T20:52:50.932Z,4.80
2018-03-14T20:55:19.358Z,3.63
2018-03-14T20:57:47.701Z,2.17
2018-03-14T21:00:16.042Z,4.37
2018-03-14T21:02:45.459Z,3.80
2018-03-14T21:05:14.910Z,6.30
2018-03-14T21:07:44.278Z,5.27
2018-03-14T21:10:12.644Z,5.67
2018-03-14T21:12:42.000Z,6.97
2018-03-14T21:15:11.407Z,5.90
2018-03-14T21:17:40.873Z,6.07
2018-03-14T21:20:10.257Z,4.90
2018-03-14T21:22:39.672Z,6.73
2018-03-14T21:25:09.146Z,5.77
2018-03-14T21:27:38.582Z,6.47
2018-03-14T21:30:07.951Z,5.50
2018-03-14T21:32:37.372Z,7.67
2018-03-14T21:35:06.731Z,6.77
2018-03-14T21:37:36.111Z,5.57
2018-03-14T21:40:05.183Z,8.67
2018-03-14T21:42:34.736Z,6.40
2018-03-14T21:45:03.775Z,4.47
2018-03-14T21:47:33.184Z,6.33
2018-03-14T21:50:02.549Z,6.97
2018-03-14T21:52:32.730Z,5.90
2018-03-14T21:55:02.098Z,7.43
2018-03-14T21:57:31.484Z,5.67
2018-03-14T21:59:59.856Z,4.63
2018-03-14T22:02:29.437Z,9.10
2018-03-14T22:04:58.902Z,7.77
2018-03-14T22:07:28.392Z,7.10
2018-03-14T22:09:57.768Z,8.23
2018-03-14T22:12:26.200Z,8.90
2018-03-14T22:14:55.312Z,5.70
2018-03-14T22:17:24.871Z,7.70
2018-03-14T22:19:53.240Z,4.73
2018-03-14T22:22:22.889Z,7.57
2018-03-14T22:24:52.442Z,9.30
2018-03-14T22:27:21.915Z,9.17
2018-03-14T22:29:51.473Z,9.70
2018-03-14T22:32:20.863Z,10.53
2018-03-14T22:34:50.340Z,7.07
2018-03-14T22:37:19.782Z,8.57
2018-03-14T22:39:49.170Z,8.90
2018-03-14T22:42:18.538Z,8.30
2018-03-14T22:44:47.902Z,7.97
2018-03-14T22:47:17.028Z,8.13
2018-03-14T22:49:45.565Z,10.40
2018-03-14T22:52:15.429Z,9.63
2018-03-14T22:54:43.432Z,9.27
2018-03-14T22:57:11.797Z,9.63
2018-03-14T22:59:40.248Z,9.20
2018-03-14T23:02:08.597Z,6.17
2018-03-14T23:04:37.993Z,8.13
2018-03-14T23:07:07.363Z,9.40
2018-03-14T23:09:36.761Z,9.70
2018-03-14T23:12:05.104Z,5.07
2018-03-14T23:14:33.471Z,7.90
2018-03-14T23:17:01.895Z,8.83
2018-03-14T23:19:30.237Z,8.80
2018-03-14T23:21:58.601Z,8.67
2018-03-14T23:24:27.912Z,10.20
2018-03-14T23:26:56.256Z,8.80
2018-03-14T23:29:24.625Z,9.57
2018-03-14T23:31:53.063Z,9.20
2018-03-14T23:34:21.448Z,8.00
2018-03-14T23:36:50.937Z,9.77
2018-03-14T23:39:19.530Z,9.93
2018-03-14T23:41:47.890Z,9.80
2018-03-14T23:44:16.223Z,7.53
2018-03-14T23:46:44.662Z,9.10
2018-03-14T23:49:13.008Z,8.97
2018-03-14T23:51:41.384Z,9.13
2018-03-14T23:54:10.164Z,8.90
2018-03-14T23:56:39.292Z,8.97
2018-03-14T23:59:07.702Z,8.73
